Time;durP1;ratioP1;P1;durP2;ratioP2;P2;SDS_P1;SDS_P2;PMS_P1;PMS_P2;Temp;Humidity;BMP_temperature;BMP_pressure;BME280_temperature;BME280_humidity;BME280_pressure;Samples;Min_cycle;Max_cycle;Signal;HPM_P1;HPM_P2
2022/06/01 00:02:19;;;;;;;6.90;2.80;;;;;16.40;97489.60;;;;108769;1268;41174;-66
2022/06/01 00:04:48;;;;;;;6.90;2.80;;;;;16.40;97488.00;;;;108796;1268;41188;-67
2022/06/01 00:07:19;;;;;;;9.50;2.60;;;;;16.40;97486.40;;;;108929;1267;41950;-65
2022/06/01 00:09:49;;;;;;;6.60;2.80;;;;;16.38;97487.20;;;;108769;1267;41182;-66
2022/06/01 00:12:19;;;;;;;6.40;2.60;;;;;16.34;97486.60;;;;108960;1268;41317;-66
2022/06/01 00:14:50;;;;;;;5.80;2.40;;;;;16.30;97484.60;;;;108809;1267;41272;-66
2022/06/01 00:17:20;;;;;;;7.40;2.70;;;;;16.30;97482.60;;;;108844;1268;41292;-66
2022/06/01 00:19:50;;;;;;;7.00;2.90;;;;;16.30;97482.20;;;;108750;1267;42152;-66
2022/06/01 00:22:20;;;;;;;7.00;3.10;;;;;16.32;97474.20;;;;108826;1267;41236;-66
2022/06/01 00:24:50;;;;;;;6.50;2.90;;;;;16.38;97476.00;;;;108829;1269;41290;-66
2022/06/01 00:27:20;;;;;;;6.40;2.70;;;;;16.40;97481.00;;;;108857;1267;41645;-66
2022/06/01 00:29:51;;;;;;;6.70;2.70;;;;;16.40;97481.00;;;;108751;1270;41964;-67
2022/06/01 00:32:21;;;;;;;;;;;;;16.38;97483.80;;;;108774;1270;41187;-67
2022/06/01 00:34:51;;;;;;;6.80;3.10;;;;;16.30;97484.60;;;;108854;1267;41297;-66
2022/06/01 00:37:21;;;;;;;7.70;3.30;;;;;16.30;97485.80;;;;108819;1267;41646;-66
2022/06/01 00:39:53;;;;;;;7.50;3.20;;;;;16.36;97487.80;;;;108698;1270;41193;-67
2022/06/01 00:42:26;;;;;;;7.70;3.50;;;;;16.32;97489.20;;;;108715;1270;42370;-66
2022/06/01 00:44:57;;;;;;;7.30;3.30;;;;;16.30;97488.00;;;;108678;1272;41564;-65
2022/06/01 00:47:28;;;;;;;7.10;3.00;;;;;16.30;97496.20;;;;108749;1270;41165;-66
2022/06/01 00:50:05;;;;;;;7.90;3.20;;;;;16.30;97492.60;;;;108700;1270;41354;-65
2022/06/01 00:52:38;;;;;;;8.90;3.70;;;;;16.30;97489.60;;;;108693;1270;41663;-65
2022/06/01 00:55:14;;;;;;;9.00;3.40;;;;;16.30;97489.60;;;;108719;1270;41632;-66
2022/06/01 00:57:47;;;;;;;9.90;3.60;;;;;16.30;97490.40;;;;108680;1270;42068;-67
2022/06/01 01:00:28;;;;;;;7.70;3.30;;;;;16.20;97488.80;;;;108636;1270;41189;-65
2022/06/01 01:03:01;;;;;;;8.80;3.50;;;;;16.20;97489.80;;;;108763;1270;41288;-66
2022/06/01 01:05:35;;;;;;;6.60;2.80;;;;;16.16;97490.00;;;;108815;1270;41295;-66
2022/06/01 01:08:06;;;;;;;6.00;2.60;;;;;16.10;97490.20;;;;108834;1271;41687;-66
2022/06/01 01:10:37;;;;;;;8.60;2.70;;;;;16.08;97490.20;;;;108755;1270;41302;-65
2022/06/01 01:13:11;;;;;;;6.70;2.90;;;;;16.00;97493.20;;;;108809;1270;41184;-65
2022/06/01 01:15:58;;;;;;;6.90;2.70;;;;;15.90;97491.00;;;;108579;1270;41199;-65
2022/06/01 01:18:32;;;;;;;7.20;2.80;;;;;15.90;97491.60;;;;108707;1270;41429;-65
2022/06/01 01:21:10;;;;;;;7.40;2.80;;;;;15.80;97492.80;;;;108774;1270;41213;-65
2022/06/01 01:23:53;;;;;;;7.00;3.10;;;;;15.80;97494.40;;;;108787;1270;41297;-66
2022/06/01 01:26:24;;;;;;;7.70;3.10;;;;;15.70;97491.40;;;;108643;1270;41287;-66
2022/06/01 01:28:55;;;;;;;9.00;3.90;;;;;15.70;97486.00;;;;108766;1270;42256;-66
2022/06/01 01:31:27;;;;;;;9.50;3.60;;;;;15.60;97484.60;;;;108660;1270;41938;-66
2022/06/01 01:33:56;;;;;;;;;;;;;15.60;97484.00;;;;108812;1268;41694;-65
2022/06/01 01:36:34;;;;;;;8.80;3.10;;;;;15.50;97478.40;;;;108739;1268;41209;-65
2022/06/01 01:39:15;;;;;;;7.50;3.10;;;;;15.50;97472.20;;;;108733;1269;41213;-66
2022/06/01 01:41:49;;;;;;;7.50;2.80;;;;;15.50;97472.40;;;;108751;1270;41235;-65
2022/06/01 01:44:26;;;;;;;7.60;2.90;;;;;15.40;97464.60;;;;108770;1271;41190;-66
2022/06/01 01:46:56;;;;;;;8.10;3.40;;;;;15.40;97469.00;;;;108761;1271;41545;-66
2022/06/01 01:49:30;;;;;;;9.50;3.50;;;;;15.40;97470.80;;;;108777;1270;41973;-65
2022/06/01 01:52:04;;;;;;;6.80;3.40;;;;;15.30;97463.40;;;;108535;1269;41566;-66
2022/06/01 01:54:34;;;;;;;8.20;3.40;;;;;15.30;97462.60;;;;108760;1269;41266;-65
2022/06/01 01:57:10;;;;;;;8.90;3.30;;;;;15.30;97464.80;;;;108740;1270;41536;-66
2022/06/01 02:00:14;;;;;;;6.50;2.90;;;;;15.20;97461.80;;;;108766;1271;41203;-65
2022/06/01 02:02:56;;;;;;;6.90;3.20;;;;;15.20;97469.20;;;;108740;1270;41400;-65
2022/06/01 02:08:29;;;;;;;8.30;3.90;;;;;15.10;97467.20;;;;108784;1270;41554;-66
2022/06/01 02:14:10;;;;;;;7.40;3.20;;;;;15.00;97474.40;;;;108791;1271;41178;-65
2022/06/01 02:16:44;;;;;;;7.30;3.00;;;;;15.00;97474.60;;;;108734;1271;41204;-65
2022/06/01 02:19:18;;;;;;;7.00;2.70;;;;;15.00;97473.20;;;;108688;1270;41153;-65
2022/06/01 02:21:49;;;;;;;11.30;3.90;;;;;14.90;97469.20;;;;108759;1270;41694;-66
2022/06/01 02:24:19;;;;;;;11.90;3.60;;;;;14.90;97471.20;;;;108741;1270;41641;-65
2022/06/01 02:26:50;;;;;;;7.70;3.20;;;;;14.90;97471.00;;;;108768;1270;41433;-66
2022/06/01 02:29:35;;;;;;;7.20;2.90;;;;;14.84;97470.20;;;;108758;1271;41669;-65
2022/06/01 02:32:07;;;;;;;7.50;3.30;;;;;14.80;97470.20;;;;108737;1270;41374;-66
2022/06/01 02:34:37;;;;;;;7.50;3.10;;;;;14.80;97473.80;;;;108752;1270;41322;-65
2022/06/01 02:37:08;;;;;;;6.90;2.90;;;;;14.80;97473.80;;;;108682;1270;41395;-65
2022/06/01 02:39:40;;;;;;;9.00;2.80;;;;;14.78;97477.40;;;;108781;1269;42409;-66
2022/06/01 02:42:25;;;;;;;7.00;2.80;;;;;14.70;97483.00;;;;108836;1269;41176;-66
2022/06/01 02:45:06;;;;;;;6.40;2.70;;;;;14.70;97484.60;;;;108749;1270;41186;-65
2022/06/01 02:47:39;;;;;;;9.50;3.20;;;;;14.68;97486.40;;;;108721;1270;41189;-67
2022/06/01 02:50:17;;;;;;;10.20;3.70;;;;;14.62;97488.40;;;;108728;1270;41200;-66
2022/06/01 02:52:47;;;;;;;7.10;3.00;;;;;14.60;97483.40;;;;108681;1270;41994;-67
2022/06/01 02:55:18;;;;;;;7.40;2.90;;;;;14.60;97479.00;;;;108859;1268;41168;-67
2022/06/01 02:57:50;;;;;;;8.70;3.10;;;;;14.60;97483.60;;;;108921;1268;41190;-66
2022/06/01 03:00:29;;;;;;;7.20;2.70;;;;;14.60;97482.40;;;;108670;1270;41184;-64
2022/06/01 03:03:00;;;;;;;8.10;2.90;;;;;14.60;97480.20;;;;108837;1270;41743;-67
2022/06/01 03:05:36;;;;;;;5.70;2.60;;;;;14.60;97480.40;;;;108857;1268;41286;-65
2022/06/01 03:08:06;;;;;;;5.20;2.60;;;;;14.60;97483.60;;;;108838;1269;41262;-65
2022/06/01 03:10:37;;;;;;;;;;;;;14.68;97493.40;;;;108872;1270;41500;-64
2022/06/01 03:13:20;;;;;;;6.80;2.90;;;;;14.70;97488.60;;;;108792;1270;41752;-65
2022/06/01 03:15:52;;;;;;;7.30;3.00;;;;;14.70;97485.00;;;;108766;1270;41420;-65
2022/06/01 03:18:22;;;;;;;8.00;3.10;;;;;14.78;97486.60;;;;108766;1270;41257;-64
2022/06/01 03:20:52;;;;;;;10.50;3.90;;;;;14.80;97487.20;;;;108861;1270;41215;-65
2022/06/01 03:23:22;;;;;;;10.40;4.70;;;;;14.80;97491.80;;;;108766;1269;41319;-65
2022/06/01 03:25:53;;;;;;;11.10;4.10;;;;;14.84;97500.20;;;;108803;1268;41173;-64
2022/06/01 03:28:23;;;;;;;17.10;4.30;;;;;14.90;97500.40;;;;108805;1269;41988;-65
2022/06/01 03:30:53;;;;;;;8.20;3.30;;;;;14.90;97497.60;;;;108721;1268;41284;-65
2022/06/01 03:33:23;;;;;;;53.00;5.40;;;;;14.92;97497.80;;;;108792;1270;41169;-64
2022/06/01 03:35:53;;;;;;;7.40;3.00;;;;;15.00;97501.80;;;;108816;1268;41184;-65
2022/06/01 03:38:22;;;;;;;6.20;2.70;;;;;15.00;97501.00;;;;108793;1270;42395;-66
2022/06/01 03:40:52;;;;;;;6.60;2.70;;;;;15.00;97501.80;;;;108768;1270;41537;-64
2022/06/01 03:43:23;;;;;;;9.80;3.80;;;;;15.10;97495.60;;;;108761;1269;41294;-65
2022/06/01 03:45:55;;;;;;;8.70;4.00;;;;;14.96;97495.00;;;;108843;1270;41287;-65
2022/06/01 03:48:33;;;;;;;12.50;4.30;;;;;14.80;97495.40;;;;108707;1270;41284;-65
2022/06/01 03:51:04;;;;;;;9.70;4.00;;;;;14.86;97497.20;;;;108806;1270;41294;-65
2022/06/01 03:53:34;;;;;;;10.20;4.70;;;;;14.90;97496.80;;;;108777;1268;41275;-65
2022/06/01 03:56:04;;;;;;;8.80;4.00;;;;;14.90;97495.80;;;;108766;1270;42206;-66
2022/06/01 03:58:36;;;;;;;9.90;4.10;;;;;15.00;97501.40;;;;108792;1268;41204;-66
2022/06/01 04:01:06;;;;;;;7.80;3.70;;;;;15.04;97514.00;;;;108840;1270;41285;-65
2022/06/01 04:03:36;;;;;;;8.00;3.70;;;;;15.20;97511.60;;;;108772;1270;41666;-65
2022/06/01 04:06:06;;;;;;;8.50;3.50;;;;;15.20;97506.40;;;;108828;1270;41231;-65
2022/06/01 04:08:35;;;;;;;8.10;3.20;;;;;15.30;97509.40;;;;108759;1270;41422;-66
2022/06/01 04:11:05;;;;;;;7.20;3.10;;;;;15.50;97505.20;;;;108826;1270;41268;-65
2022/06/01 04:13:35;;;;;;;6.80;3.00;;;;;15.76;97501.40;;;;108750;1270;41291;-65
2022/06/01 04:16:05;;;;;;;6.60;3.00;;;;;16.96;97479.20;;;;108746;1267;41753;-64
2022/06/01 04:18:47;;;;;;;6.90;2.90;;;;;18.38;97475.60;;;;108789;1270;41222;-65
2022/06/01 04:21:19;;;;;;;7.10;3.00;;;;;19.62;97471.00;;;;108793;1270;41155;-65
2022/06/01 04:23:49;;;;;;;8.80;3.10;;;;;20.76;97473.60;;;;108829;1269;41214;-65
2022/06/01 04:26:19;;;;;;;8.20;3.40;;;;;21.72;97468.80;;;;108802;1270;41182;-65
2022/06/01 04:28:50;;;;;;;8.40;3.40;;;;;22.46;97468.60;;;;108685;1270;41263;-65
2022/06/01 04:31:21;;;;;;;8.50;3.10;;;;;23.00;97465.60;;;;108870;1269;41178;-66
2022/06/01 04:33:51;;;;;;;8.40;3.30;;;;;23.40;97463.20;;;;108753;1268;41654;-66
2022/06/01 04:36:21;;;;;;;7.50;3.00;;;;;24.00;97468.40;;;;108910;1270;41284;-65
2022/06/01 04:38:51;;;;;;;6.40;2.90;;;;;24.60;97473.20;;;;108712;1269;41298;-66
2022/06/01 04:41:21;;;;;;;5.80;2.70;;;;;25.20;97474.60;;;;108798;1270;40995;-65
2022/06/01 04:43:50;;;;;;;7.80;2.80;;;;;25.78;97476.00;;;;108667;1270;42469;-65
2022/06/01 04:46:20;;;;;;;6.30;2.80;;;;;26.30;97473.80;;;;108696;1270;41292;-65
2022/06/01 04:48:50;;;;;;;6.30;2.60;;;;;26.76;97470.20;;;;108739;1270;42269;-65
2022/06/01 04:51:20;;;;;;;7.10;2.90;;;;;27.20;97463.40;;;;108737;1270;41164;-65
2022/06/01 04:53:50;;;;;;;8.00;2.60;;;;;27.50;97466.40;;;;108740;1270;41215;-65
2022/06/01 04:56:19;;;;;;;6.70;2.80;;;;;27.90;97462.00;;;;108741;1270;41316;-66
2022/06/01 04:58:48;;;;;;;6.90;2.60;;;;;28.34;97462.60;;;;108818;1269;41298;-66
2022/06/01 05:01:18;;;;;;;8.20;3.30;;;;;28.80;97461.40;;;;108925;1270;41266;-66
2022/06/01 05:03:47;;;;;;;5.80;2.60;;;;;28.70;97461.00;;;;108665;1268;41339;-66
2022/06/01 05:06:17;;;;;;;7.10;2.80;;;;;28.52;97461.80;;;;108776;1269;41649;-66
2022/06/01 05:08:46;;;;;;;6.70;3.10;;;;;28.90;97459.40;;;;108659;1270;41704;-66
2022/06/01 05:11:16;;;;;;;7.20;3.20;;;;;28.84;97458.00;;;;108796;1269;41764;-64
2022/06/01 05:13:48;;;;;;;5.80;2.30;;;;;28.70;97457.80;;;;108872;1267;42130;-65
2022/06/01 05:16:18;;;;;;;;;;;;;29.10;97464.20;;;;108800;1268;41180;-66
2022/06/01 05:18:49;;;;;;;7.90;3.00;;;;;29.58;97458.60;;;;108877;1268;41768;-66
2022/06/01 05:21:19;;;;;;;7.30;2.40;;;;;29.44;97458.60;;;;108803;1268;41764;-65
2022/06/01 05:23:48;;;;;;;7.00;2.50;;;;;29.34;97465.00;;;;108836;1269;41171;-66
2022/06/01 05:26:18;;;;;;;7.00;2.90;;;;;29.16;97463.00;;;;108824;1269;41296;-67
2022/06/01 05:28:47;;;;;;;5.60;2.30;;;;;28.58;97481.20;;;;108786;1270;41662;-67
2022/06/01 05:31:18;;;;;;;7.00;2.50;;;;;27.68;97495.20;;;;108856;1270;41542;-65
2022/06/01 05:33:51;;;;;;;9.60;2.70;;;;;26.38;97497.40;;;;108694;1270;41988;-65
2022/06/01 05:36:20;;;;;;;6.90;2.40;;;;;25.40;97497.60;;;;108820;1270;41173;-66
2022/06/01 05:38:50;;;;;;;8.50;3.00;;;;;24.66;97502.60;;;;108669;1270;41505;-65
2022/06/01 05:41:19;;;;;;;8.30;3.10;;;;;24.04;97502.00;;;;108872;1267;41691;-67
2022/06/01 05:43:51;;;;;;;8.10;2.60;;;;;23.70;97503.80;;;;108799;1270;41300;-66
2022/06/01 05:46:22;;;;;;;7.80;2.70;;;;;23.42;97494.80;;;;108978;1267;42301;-66
2022/06/01 05:48:52;;;;;;;10.40;3.00;;;;;24.34;97472.40;;;;108843;1270;41660;-66
2022/06/01 05:51:23;;;;;;;5.60;2.50;;;;;25.24;97465.40;;;;108904;1268;41159;-65
2022/06/01 05:53:52;;;;;;;;;;;;;26.14;97468.00;;;;108779;1269;41230;-66
2022/06/01 05:56:21;;;;;;;8.70;2.90;;;;;27.04;97470.00;;;;108903;1268;41187;-66
2022/06/01 05:58:51;;;;;;;9.00;2.70;;;;;27.60;97467.40;;;;108922;1270;41276;-66
2022/06/01 06:01:23;;;;;;;9.60;2.70;;;;;27.10;97469.40;;;;108830;1269;41331;-66
2022/06/01 06:03:53;;;;;;;6.30;2.70;;;;;27.20;97467.60;;;;108889;1267;41171;-66
2022/06/01 06:06:23;;;;;;;6.70;2.80;;;;;27.18;97472.80;;;;108742;1268;41675;-66
2022/06/01 06:09:02;;;;;;;8.10;3.00;;;;;27.40;97474.80;;;;108842;1270;41178;-66
2022/06/01 06:11:40;;;;;;;8.70;3.10;;;;;26.96;97481.80;;;;108962;1268;41235;-66
2022/06/01 06:14:10;;;;;;;8.50;2.70;;;;;26.90;97483.60;;;;108870;1267;41333;-67
2022/06/01 06:16:42;;;;;;;6.20;2.50;;;;;26.66;97482.80;;;;108811;1269;41252;-67
2022/06/01 06:19:13;;;;;;;5.30;2.20;;;;;27.56;97484.20;;;;108906;1267;41971;-67
2022/06/01 06:21:44;;;;;;;5.10;2.20;;;;;28.32;97479.60;;;;108861;1267;41626;-66
2022/06/01 06:24:16;;;;;;;7.20;2.60;;;;;29.10;97480.00;;;;108922;1268;41175;-67
2022/06/01 06:26:46;;;;;;;7.90;2.70;;;;;29.28;97480.40;;;;108588;1267;384730;-67
2022/06/01 06:29:17;;;;;;;5.80;2.10;;;;;28.80;97475.00;;;;108925;1267;42383;-67
2022/06/01 06:31:47;;;;;;;5.60;2.20;;;;;29.20;97474.00;;;;108861;1267;41150;-67
2022/06/01 06:34:17;;;;;;;7.80;2.70;;;;;29.70;97477.60;;;;108836;1267;41173;-67
2022/06/01 06:36:46;;;;;;;7.40;2.80;;;;;29.50;97481.80;;;;108924;1268;41273;-67
2022/06/01 06:39:15;;;;;;;5.10;2.20;;;;;29.24;97484.80;;;;108898;1269;41349;-67
2022/06/01 06:41:44;;;;;;;6.00;2.20;;;;;29.44;97488.80;;;;108875;1267;41739;-68
2022/06/01 06:44:27;;;;;;;5.50;2.00;;;;;30.00;97483.20;;;;108389;1273;41185;-67
2022/06/01 06:47:14;;;;;;;7.50;2.70;;;;;30.72;97489.00;;;;108480;1273;42304;-68
2022/06/01 06:49:44;;;;;;;6.50;2.40;;;;;31.04;97483.00;;;;108508;1273;41306;-67
2022/06/01 06:52:31;;;;;;;8.90;2.40;;;;;30.74;97481.40;;;;108390;1273;41903;-68
2022/06/01 06:55:00;;;;;;;6.60;2.40;;;;;31.02;97482.80;;;;108468;1273;41187;-67
2022/06/01 06:57:29;;;;;;;8.50;2.70;;;;;31.02;97477.20;;;;108431;1273;41978;-68
2022/06/01 07:00:00;;;;;;;9.60;2.80;;;;;30.40;97480.20;;;;108472;1273;41196;-67
2022/06/01 07:02:29;;;;;;;5.50;2.30;;;;;29.72;97484.00;;;;108315;1276;41737;-69
2022/06/01 07:04:58;;;;;;;5.40;2.20;;;;;29.40;97487.60;;;;108510;1273;41976;-68
2022/06/01 07:07:28;;;;;;;9.60;3.10;;;;;29.70;97482.40;;;;108564;1273;41163;-69
2022/06/01 07:09:57;;;;;;;10.00;3.20;;;;;28.90;97482.00;;;;108473;1273;41781;-66
2022/06/01 07:12:28;;;;;;;8.10;2.90;;;;;27.60;97487.60;;;;108445;1273;42197;-67
2022/06/01 07:14:57;;;;;;;8.80;2.50;;;;;26.64;97498.40;;;;108569;1270;41735;-69
2022/06/01 07:17:26;;;;;;;8.60;3.00;;;;;26.60;97497.60;;;;108866;1270;41209;-67
2022/06/01 07:19:55;;;;;;;6.60;2.80;;;;;26.14;97493.80;;;;108626;1270;41499;-67
2022/06/01 07:22:25;;;;;;;10.60;3.40;;;;;25.68;97496.20;;;;108854;1268;42175;-67
2022/06/01 07:24:54;;;;;;;7.90;2.90;;;;;25.22;97491.00;;;;108735;1268;41287;-67
2022/06/01 07:27:23;;;;;;;6.40;2.90;;;;;25.10;97494.40;;;;108782;1268;41709;-68
2022/06/01 07:29:52;;;;;;;6.80;2.90;;;;;24.92;97495.80;;;;108888;1268;42395;-67
2022/06/01 07:32:21;;;;;;;9.30;3.00;;;;;24.60;97495.40;;;;108854;1267;41711;-67
2022/06/01 07:34:51;;;;;;;7.80;3.20;;;;;24.80;97501.20;;;;108735;1268;41177;-66
2022/06/01 07:43:08;;;;;;;7.30;2.70;;;;;25.20;97495.60;;;;108884;1268;41177;-70
2022/06/01 07:45:40;;;;;;;7.60;3.00;;;;;25.12;97496.40;;;;108810;1267;41478;-68
2022/06/01 07:48:11;;;;;;;7.20;3.20;;;;;25.10;97496.40;;;;108932;1267;42358;-68
2022/06/01 07:51:00;;;;;;;5.40;2.30;;;;;25.00;97492.60;;;;108858;1268;41285;-69
2022/06/01 07:53:29;;;;;;;8.50;2.80;;;;;25.12;97494.60;;;;108874;1266;41280;-67
2022/06/01 07:55:59;;;;;;;6.20;2.70;;;;;25.30;97496.80;;;;108928;1268;41448;-68
2022/06/01 07:58:28;;;;;;;8.80;3.40;;;;;25.50;97496.60;;;;108910;1267;41196;-67
2022/06/01 08:00:58;;;;;;;7.80;2.70;;;;;25.22;97498.60;;;;108949;1268;41180;-70
2022/06/01 08:03:28;;;;;;;11.20;3.50;;;;;25.40;97494.20;;;;108958;1268;41886;-67
2022/06/01 08:05:57;;;;;;;7.90;3.00;;;;;25.40;97495.00;;;;109019;1267;41753;-70
2022/06/01 08:08:27;;;;;;;7.20;2.70;;;;;25.30;97495.60;;;;108814;1270;41291;-68
2022/06/01 08:10:59;;;;;;;6.30;2.60;;;;;25.40;97499.00;;;;108907;1267;41192;-70
2022/06/01 08:13:28;;;;;;;7.90;2.80;;;;;25.60;97495.00;;;;108804;1270;41175;-69
2022/06/01 08:15:58;;;;;;;7.70;2.90;;;;;25.88;97503.80;;;;108917;1270;41296;-69
2022/06/01 08:18:27;;;;;;;;;;;;;26.10;97502.40;;;;108884;1270;41731;-69
2022/06/01 08:20:57;;;;;;;10.40;3.00;;;;;26.20;97501.00;;;;108928;1270;42009;-68
2022/06/01 08:23:28;;;;;;;8.80;3.40;;;;;26.00;97503.80;;;;108875;1269;41181;-69
2022/06/01 08:25:58;;;;;;;7.10;2.80;;;;;26.04;97501.00;;;;108843;1267;41629;-69
2022/06/01 08:28:27;;;;;;;7.00;2.50;;;;;26.10;97502.80;;;;108896;1267;41444;-70
2022/06/01 08:30:56;;;;;;;8.50;3.20;;;;;26.10;97502.60;;;;108717;1270;41284;-68
2022/06/01 08:33:25;;;;;;;8.40;3.30;;;;;26.00;97506.20;;;;108926;1268;41464;-70
2022/06/01 08:35:55;;;;;;;6.80;2.60;;;;;26.10;97504.40;;;;109071;1268;41178;-69
2022/06/01 08:38:24;;;;;;;10.60;3.30;;;;;26.06;97505.60;;;;109008;1268;41324;-68
2022/06/01 08:41:20;;;;;;;7.30;2.70;;;;;26.30;97502.80;;;;108869;1268;42065;-67
2022/06/01 08:43:59;;;;;;;6.50;2.50;;;;;25.84;97502.20;;;;108897;1273;41177;-68
2022/06/01 08:46:29;;;;;;;7.10;2.60;;;;;26.36;97501.60;;;;108893;1270;41310;-69
2022/06/01 08:49:01;;;;;;;7.70;3.10;;;;;26.50;97500.20;;;;108909;1270;41627;-68
2022/06/01 08:51:31;;;;;;;7.50;2.80;;;;;26.94;97494.60;;;;108778;1268;41175;-67
2022/06/01 08:54:02;;;;;;;6.20;2.40;;;;;27.02;97491.40;;;;109018;1268;41673;-68
2022/06/01 08:56:42;;;;;;;6.50;2.60;;;;;27.00;97486.40;;;;108857;1271;41284;-69
2022/06/01 08:59:35;;;;;;;7.10;2.40;;;;;27.20;97490.80;;;;109032;1267;41187;-69
2022/06/01 09:02:25;;;;;;;6.10;2.40;;;;;27.80;97489.00;;;;108962;1270;41189;-70
2022/06/01 09:05:03;;;;;;;5.40;2.00;;;;;28.18;97487.00;;;;109091;1266;41904;-68
2022/06/01 09:07:44;;;;;;;6.70;2.30;;;;;28.36;97489.00;;;;108897;1270;41177;-69
2022/06/01 09:10:22;;;;;;;6.90;2.30;;;;;28.60;97485.80;;;;108897;1267;41192;-70
2022/06/01 09:13:14;;;;;;;7.10;2.50;;;;;28.88;97480.80;;;;109172;1267;42018;-70
2022/06/01 09:16:12;;;;;;;6.50;2.40;;;;;29.70;97480.00;;;;109027;1268;42916;-68
2022/06/01 09:18:44;;;;;;;5.40;2.10;;;;;30.76;97474.40;;;;108966;1267;41751;-69
2022/06/01 09:24:17;;;;;;;;;;;;;32.96;97463.00;;;;108941;1270;41180;-69
2022/06/01 09:27:07;;;;;;;6.50;2.30;;;;;34.00;97459.80;;;;108891;1267;42216;-69
2022/06/01 09:29:49;;;;;;;6.40;2.20;;;;;34.02;97461.60;;;;108995;1268;42323;-69
2022/06/01 09:32:30;;;;;;;5.10;2.10;;;;;33.86;97464.20;;;;108909;1270;41167;-69
2022/06/01 09:35:08;;;;;;;5.90;2.30;;;;;33.40;97464.20;;;;108976;1270;41924;-70
2022/06/01 09:37:45;;;;;;;7.20;2.90;;;;;33.64;97464.40;;;;108996;1267;41164;-69
2022/06/01 09:40:23;;;;;;;8.10;2.40;;;;;33.48;97467.60;;;;109041;1268;40929;-70
2022/06/01 09:42:53;;;;;;;8.60;2.60;;;;;33.20;97465.00;;;;109024;1267;41162;-70
2022/06/01 09:45:27;;;;;;;7.20;2.70;;;;;32.82;97475.20;;;;108884;1268;42507;-70
2022/06/01 09:48:34;;;;;;;5.90;2.30;;;;;32.26;97484.40;;;;109014;1267;41463;-70
2022/06/01 09:51:18;;;;;;;4.50;1.90;;;;;31.50;97482.00;;;;108916;1268;41785;-71
2022/06/01 09:53:52;;;;;;;6.20;2.10;;;;;31.80;97486.20;;;;109023;1267;41167;-69
2022/06/01 09:56:40;;;;;;;4.10;1.90;;;;;32.02;97483.20;;;;108906;1267;41441;-69
2022/06/01 10:08:05;;;;;;;4.20;1.90;;;;;34.68;97469.40;;;;109027;1267;40766;-69
2022/06/01 10:10:35;;;;;;;4.70;1.90;;;;;35.36;97466.80;;;;108977;1267;41292;-69
2022/06/01 10:13:06;;;;;;;;;;;;;35.66;97462.80;;;;109115;1268;41980;-70
2022/06/01 10:15:47;;;;;;;5.10;2.20;;;;;35.20;97460.80;;;;109136;1267;42400;-69
2022/06/01 10:18:29;;;;;;;6.50;2.10;;;;;34.92;97460.00;;;;108968;1268;42227;-71
2022/06/01 10:21:04;;;;;;;6.00;2.00;;;;;34.46;97457.20;;;;108995;1267;41208;-69
2022/06/01 10:23:41;;;;;;;6.60;2.00;;;;;34.14;97459.00;;;;108721;1270;42194;-70
2022/06/01 10:26:33;;;;;;;5.90;2.00;;;;;33.76;97458.80;;;;108854;1270;41653;-70
2022/06/01 10:29:11;;;;;;;6.50;2.30;;;;;33.40;97457.40;;;;108984;1267;41159;-70
2022/06/01 10:31:44;;;;;;;4.20;1.90;;;;;33.30;97462.60;;;;108925;1270;41177;-69
2022/06/01 10:34:32;;;;;;;4.30;1.80;;;;;32.76;97460.20;;;;109109;1267;42741;-69
2022/06/01 10:37:21;;;;;;;5.20;1.80;;;;;32.82;97460.00;;;;108870;1270;41711;-69
2022/06/01 10:39:58;;;;;;;5.30;2.10;;;;;31.90;97456.60;;;;109034;1267;41440;-70
2022/06/01 10:45:39;;;;;;;6.80;2.10;;;;;31.30;97468.60;;;;108977;1268;41169;-69
2022/06/01 10:48:21;;;;;;;4.20;1.70;;;;;31.40;97463.20;;;;108835;1270;41625;-70
2022/06/01 10:51:10;;;;;;;3.90;1.90;;;;;31.38;97462.60;;;;108875;1270;41291;-69
2022/06/01 10:53:59;;;;;;;6.30;2.00;;;;;32.26;97459.40;;;;109133;1267;41374;-69
2022/06/01 10:56:29;;;;;;;7.60;1.90;;;;;32.46;97454.40;;;;109057;1267;41207;-69
2022/06/01 10:59:03;;;;;;;4.70;2.00;;;;;33.16;97454.40;;;;108892;1270;41962;-70
2022/06/01 11:02:03;;;;;;;5.00;2.00;;;;;33.94;97449.80;;;;109018;1268;41152;-70
2022/06/01 11:04:59;;;;;;;3.40;1.70;;;;;34.84;97442.60;;;;108955;1270;41171;-70
2022/06/01 11:07:37;;;;;;;3.90;1.70;;;;;35.52;97433.80;;;;109016;1267;41706;-70
2022/06/01 11:10:48;;;;;;;9.40;3.50;;;;;36.24;97420.60;;;;109068;1267;42413;-70
2022/06/01 11:13:53;;;;;;;6.20;2.20;;;;;35.80;97422.80;;;;109155;1267;41181;-70
2022/06/01 11:16:28;;;;;;;9.50;2.60;;;;;35.62;97417.80;;;;108456;1276;42277;-71
2022/06/01 11:19:05;;;;;;;4.90;1.90;;;;;35.64;97420.40;;;;108388;1276;41181;-71
2022/06/01 11:22:16;;;;;;;5.20;1.90;;;;;35.64;97417.60;;;;108363;1276;41299;-70
2022/06/01 11:24:47;;;;;;;7.40;2.40;;;;;35.68;97416.60;;;;108339;1276;40916;-69
2022/06/01 11:27:34;;;;;;;9.20;2.40;;;;;36.16;97411.40;;;;108379;1276;41831;-71
2022/06/01 11:30:15;;;;;;;12.40;5.40;;;;;36.28;97413.20;;;;108401;1277;41189;-70
2022/06/01 11:33:06;;;;;;;7.30;2.30;;;;;36.60;97411.40;;;;108329;1276;41679;-70
2022/06/01 11:35:41;;;;;;;11.70;2.90;;;;;36.34;97410.80;;;;108377;1276;41201;-69
2022/06/01 11:38:40;;;;;;;8.70;3.30;;;;;36.88;97411.20;;;;108433;1276;42010;-71
2022/06/01 11:41:18;;;;;;;8.70;2.10;;;;;37.00;97411.20;;;;108260;1276;41585;-70
2022/06/01 11:44:13;;;;;;;7.70;2.00;;;;;37.46;97409.00;;;;108246;1279;41297;-69
2022/06/01 11:46:46;;;;;;;7.20;2.10;;;;;37.32;97407.40;;;;108381;1276;41945;-71
2022/06/01 11:49:32;;;;;;;8.30;2.50;;;;;36.86;97407.20;;;;108370;1276;41759;-70
2022/06/01 11:52:23;;;;;;;6.80;2.10;;;;;36.94;97402.40;;;;108659;1270;41557;-71
2022/06/01 11:55:21;;;;;;;6.00;2.10;;;;;36.42;97409.00;;;;109029;1269;41182;-69
2022/06/01 11:57:54;;;;;;;6.50;1.80;;;;;36.76;97408.60;;;;109118;1267;41177;-70
2022/06/01 12:00:43;;;;;;;4.60;1.80;;;;;36.80;97412.60;;;;109028;1270;41186;-69
2022/06/01 12:03:21;;;;;;;4.30;1.60;;;;;37.58;97410.00;;;;108937;1270;41173;-69
2022/06/01 12:06:11;;;;;;;4.20;1.70;;;;;38.32;97408.00;;;;108901;1270;41289;-71
2022/06/01 12:08:56;;;;;;;3.90;1.60;;;;;38.88;97401.40;;;;109112;1267;41237;-70
2022/06/01 12:11:46;;;;;;;2.80;1.50;;;;;38.36;97402.00;;;;109018;1270;41662;-71
2022/06/01 12:14:39;;;;;;;4.90;1.60;;;;;37.56;97402.00;;;;109025;1268;41961;-71
2022/06/01 12:17:17;;;;;;;4.10;1.50;;;;;36.36;97402.80;;;;108974;1270;41045;-71
2022/06/01 12:19:48;;;;;;;4.10;1.70;;;;;35.70;97410.20;;;;109013;1268;41643;-69
2022/06/01 12:29:07;;;;;;;4.00;1.60;;;;;34.20;97417.20;;;;108933;1270;41286;-69
2022/06/01 12:31:38;;;;;;;3.00;1.50;;;;;33.80;97420.20;;;;108941;1269;41260;-70
2022/06/01 12:34:27;;;;;;;4.00;1.60;;;;;33.70;97427.80;;;;108991;1268;41173;-70
2022/06/01 12:36:57;;;;;;;9.40;1.70;;;;;33.50;97429.60;;;;109063;1269;41975;-71
2022/06/01 12:39:34;;;;;;;7.90;1.80;;;;;33.16;97433.00;;;;108945;1270;41954;-69
2022/06/01 12:42:09;;;;;;;5.40;1.90;;;;;33.04;97435.20;;;;108947;1270;41368;-70
2022/06/01 12:44:40;;;;;;;3.80;1.50;;;;;33.00;97436.20;;;;109050;1267;42760;-70
2022/06/01 12:47:24;;;;;;;7.70;2.00;;;;;32.80;97438.60;;;;108998;1270;41394;-70
2022/06/01 12:49:53;;;;;;;4.80;1.60;;;;;32.66;97438.80;;;;109010;1267;41182;-69
2022/06/01 12:52:25;;;;;;;12.70;2.70;;;;;32.34;97433.40;;;;108982;1267;41177;-69
2022/06/01 12:55:00;;;;;;;3.80;1.60;;;;;32.10;97436.80;;;;108963;1270;41634;-70
2022/06/01 12:57:46;;;;;;;5.00;1.70;;;;;31.66;97434.20;;;;109003;1267;41320;-70
2022/06/01 13:00:15;;;;;;;4.50;1.50;;;;;31.40;97433.60;;;;108787;1270;41291;-70
2022/06/01 13:02:45;;;;;;;4.80;1.60;;;;;31.20;97437.20;;;;109005;1267;41161;-70
2022/06/01 13:05:21;;;;;;;4.50;1.70;;;;;31.10;97438.00;;;;108939;1270;41576;-69
2022/06/01 13:07:56;;;;;;;4.20;1.60;;;;;31.00;97437.60;;;;108884;1272;41191;-70
2022/06/01 13:10:31;;;;;;;4.90;1.50;;;;;30.90;97434.20;;;;108954;1270;41311;-70
2022/06/01 13:13:01;;;;;;;5.90;1.80;;;;;30.80;97437.00;;;;108870;1270;41178;-68
2022/06/01 13:15:31;;;;;;;4.30;1.50;;;;;30.60;97432.60;;;;108970;1267;41155;-69
2022/06/01 13:18:05;;;;;;;3.30;1.60;;;;;30.40;97434.20;;;;108992;1270;41175;-70
2022/06/01 13:20:39;;;;;;;3.60;1.70;;;;;30.18;97427.80;;;;109106;1267;41452;-70